Main page
METAR-TAF:

METAR-TAF

Airports :

Phetchabun Airport

Phetchabun, Thailand

latitude: 16-40-33N, longitude: 101-11-42E, elevation: 137 m

Current weather observation

The report was made 19 minutes ago, at 02:00 UTC
Wind 3 kt from the North
Temperature 24°C
Humidity 65%
Pressure 1017 hPa
Visibility: 7000 m

METAR: VTPB 150200Z 01003KT 7000 NSC 24/17 Q1017 NOSIG

Time: 09:19 (02:19 UTC)

Forecast

The report was made 3 hours and 19 minutes ago, at 23:00 UTC
Forecast valid from 15 at 00 UTC to 15 at 24 UTC
Wind 5 kt from the North/Northwest
Visibility: 8000 m

TAF: VTPB 142300Z 1500/1524 34005KT 8000 NSC

Weather observations and forecasts of more than 4000 airports (METAR and TAF reports).

The available stations are represented by yellow and red dots on the map.

Hover mouse over dot to see the name of the station.

Then click to see weather observations and forecasts.

To change the map : click on the green buttons with a black cross to zoom in, on the green button with a dash to zoom out, or on the green arrows for adjacent maps.


METAR-TAF: